CheckWX is a tool to help pilots better visualize weather data.  It is not intended as a substitute for an official pre-flight weather briefing.

12:49:52 UTC

KAND TAF
Anderson Regional Airport
Anderson, South Carolina, USA
KAND 201128Z 2012/2112 VRB02KT P6SM VCSH SCT030 OVC090 FM201800 12003KT P6SM VCTS BKN030CB FM202100 15006KT P6SM BKN035 PROB30 2021/2024 4SM TSRA OVC025CB FM210000 17004KT P6SM BKN045 FM211000 21003KT 6SM BR BKN040

Aug-20@
12:00 UTC

Aug-20 @ 12:00 UTC

Aug-20@
18:00 UTC

Aug-20 @ 18:00 UTC

KAND 201128Z 2012/2112 VRB02KT P6SM VCSH SCT030 OVC090
Wind
  • Variable at 2 KTS
Cloud Levels
  • Scattered at 3,000' AGL
  • Overcast at 9,000' AGL

Aug-20@
18:00 UTC

Aug-20 @ 18:00 UTC

Aug-20@
21:00 UTC

Aug-20 @ 21:00 UTC

FM201800 12003KT P6SM VCTS BKN030CB

From

From Standard forecast or significant change

Wind
  • 120° at 3 KTS
Conditions
Area Thunderstorm
Cloud Levels
  • Broken at 3,000' AGL

Aug-20@
21:00 UTC

Aug-20 @ 21:00 UTC

Aug-21@
00:00 UTC

Aug-21 @ 00:00 UTC

PROB30 2021/2024 4SM TSRA OVC025CB

Probable - 30% Likelihood

Probable - 30% Likelihood during this time.

Conditions
Thunderstorm, Rain
Cloud Levels
  • Overcast at 2,500' AGL

Aug-20@
21:00 UTC

Aug-20 @ 21:00 UTC

Aug-21@
00:00 UTC

Aug-21 @ 00:00 UTC

FM202100 15006KT P6SM BKN035

From

From Standard forecast or significant change

Wind
  • 150° at 6 KTS
Cloud Levels
  • Broken at 3,500' AGL

Aug-21@
00:00 UTC

Aug-21 @ 00:00 UTC

Aug-21@
10:00 UTC

Aug-21 @ 10:00 UTC

FM210000 17004KT P6SM BKN045

From

From Standard forecast or significant change

Wind
  • 170° at 4 KTS
Cloud Levels
  • Broken at 4,500' AGL

Aug-21@
10:00 UTC

Aug-21 @ 10:00 UTC

Aug-21@
12:00 UTC

Aug-21 @ 12:00 UTC

FM211000 21003KT 6SM BR BKN040

From

From Standard forecast or significant change

Wind
  • 210° at 3 KTS
Conditions
Mist
Cloud Levels
  • Broken at 4,000' AGL